Time;durP1;ratioP1;P1;durP2;ratioP2;P2;SDS_P1;SDS_P2;PMS_P1;PMS_P2;Temp;Humidity;BMP_temperature;BMP_pressure;BME280_temperature;BME280_humidity;BME280_pressure;Samples;Min_cycle;Max_cycle;Signal;HPM_P1;HPM_P2
2023/03/28 00:01:32;;;;;;;3.97;2.20;;;;;;;;;;4941841;29;20513;-71
2023/03/28 00:03:57;;;;;;;5.78;2.55;;;;;;;;;;4940971;28;20043;-71
2023/03/28 00:06:25;;;;;;;4.13;2.50;;;;;;;;;;4941968;29;20035;-71
2023/03/28 00:08:50;;;;;;;1.70;1.60;;;;;;;;;;4941148;28;20525;-71
2023/03/28 00:11:18;;;;;;;4.15;2.65;;;;;;;;;;4941755;29;20090;-71
2023/03/28 00:13:52;;;;;;;3.25;2.05;;;;;;;;;;4941335;29;20118;-71
2023/03/28 00:16:18;;;;;;;3.72;2.42;;;;;;;;;;4941419;29;20050;-71
2023/03/28 00:18:49;;;;;;;7.15;2.58;;;;;;;;;;4941656;29;20615;-71
2023/03/28 00:21:24;;;;;;;4.93;2.72;;;;;;;;;;4940562;28;20494;-71
2023/03/28 00:23:53;;;;;;;6.90;2.90;;;;;;;;;;4941624;29;20130;-71
2023/03/28 00:26:23;;;;;;;4.80;3.08;;;;;;;;;;4941321;28;20059;-72
2023/03/28 00:28:49;;;;;;;2.90;2.17;;;;;;;;;;4924519;29;20047;-71
2023/03/28 00:31:14;;;;;;;2.38;2.15;;;;;;;;;;4940418;29;20566;-71
2023/03/28 00:33:40;;;;;;;2.58;2.38;;;;;;;;;;4942904;28;20487;-72
2023/03/28 00:36:09;;;;;;;3.90;2.40;;;;;;;;;;4944364;29;20047;-71
2023/03/28 00:38:34;;;;;;;4.95;3.30;;;;;;;;;;4927959;28;20154;-71
2023/03/28 00:41:00;;;;;;;2.90;2.13;;;;;;;;;;4928269;29;20130;-71
2023/03/28 00:43:43;;;;;;;3.85;2.80;;;;;;;;;;4927078;29;20051;-71
2023/03/28 00:46:22;;;;;;;3.60;3.30;;;;;;;;;;4944785;28;20047;-71
2023/03/28 00:48:51;;;;;;;3.83;2.58;;;;;;;;;;4945053;29;20608;-71
2023/03/28 00:51:19;;;;;;;3.28;2.75;;;;;;;;;;4928060;28;20114;-71
2023/03/28 00:53:46;;;;;;;9.65;3.60;;;;;;;;;;4944139;28;20050;-71
2023/03/28 00:56:16;;;;;;;4.65;2.70;;;;;;;;;;4944441;28;20410;-69
2023/03/28 00:58:43;;;;;;;3.75;3.10;;;;;;;;;;4945310;29;20055;-68
2023/03/28 01:01:12;;;;;;;3.05;2.75;;;;;;;;;;4946276;29;20047;-69
2023/03/28 01:03:40;;;;;;;3.90;2.97;;;;;;;;;;4943444;28;20051;-68
2023/03/28 01:06:08;;;;;;;3.65;2.30;;;;;;;;;;4925960;29;20485;-68
2023/03/28 01:08:40;;;;;;;2.83;2.63;;;;;;;;;;4926128;29;20054;-68
2023/03/28 01:11:05;;;;;;;4.03;3.25;;;;;;;;;;4941768;28;20085;-71
2023/03/28 01:13:38;;;;;;;4.03;3.15;;;;;;;;;;4958050;28;20062;-70
2023/03/28 01:16:05;;;;;;;3.30;2.75;;;;;;;;;;4925767;28;20085;-68
2023/03/28 01:18:33;;;;;;;5.10;2.97;;;;;;;;;;4928256;29;20054;-69
2023/03/28 01:21:05;;;;;;;3.45;2.95;;;;;;;;;;4927566;28;20043;-72
2023/03/28 01:23:36;;;;;;;4.45;2.95;;;;;;;;;;4924131;29;20066;-72
2023/03/28 01:26:32;;;;;;;3.78;2.53;;;;;;;;;;4942415;28;20939;-71
2023/03/28 01:29:13;;;;;;;3.60;3.30;;;;;;;;;;4926700;29;20049;-71
2023/03/28 01:32:11;;;;;;;5.15;3.00;;;;;;;;;;4926976;29;20047;-71
2023/03/28 01:35:35;;;;;;;4.15;2.83;;;;;;;;;;4914466;29;20043;-71
2023/03/28 01:38:15;;;;;;;4.72;1.88;;;;;;;;;;4926033;28;20043;-72
2023/03/28 01:40:47;;;;;;;2.35;2.15;;;;;;;;;;4927109;29;20043;-71
2023/03/28 01:43:26;;;;;;;12.40;3.25;;;;;;;;;;4927152;29;20047;-71
2023/03/28 01:46:10;;;;;;;3.20;2.90;;;;;;;;;;4943129;28;20584;-71
2023/03/28 01:48:54;;;;;;;2.92;1.83;;;;;;;;;;4926899;29;20047;-70
2023/03/28 01:51:32;;;;;;;2.42;2.22;;;;;;;;;;4943854;28;20044;-71
2023/03/28 01:54:17;;;;;;;2.50;2.30;;;;;;;;;;4926151;29;20052;-71
2023/03/28 01:56:54;;;;;;;2.95;2.38;;;;;;;;;;4926860;28;20051;-70
2023/03/28 01:59:35;;;;;;;4.82;2.90;;;;;;;;;;4926235;29;21248;-70
2023/03/28 02:02:35;;;;;;;3.75;2.70;;;;;;;;;;4942769;28;20167;-72
2023/03/28 02:05:14;;;;;;;;;;;;;;;;;;4927173;29;20051;-71
2023/03/28 02:07:42;;;;;;;2.67;2.47;;;;;;;;;;4926337;29;19926;-71
2023/03/28 02:10:13;;;;;;;4.20;3.35;;;;;;;;;;4925415;28;20050;-71
2023/03/28 02:13:08;;;;;;;3.47;2.67;;;;;;;;;;4927282;29;20538;-71
2023/03/28 02:15:59;;;;;;;6.93;2.75;;;;;;;;;;4925447;28;20113;-71
2023/03/28 02:18:29;;;;;;;9.25;3.00;;;;;;;;;;4943577;29;20051;-71
2023/03/28 02:21:22;;;;;;;5.80;2.65;;;;;;;;;;4942856;28;20046;-71
2023/03/28 02:24:08;;;;;;;6.20;3.97;;;;;;;;;;4942671;29;20089;-71
2023/03/28 02:26:53;;;;;;;3.58;3.05;;;;;;;;;;4943311;28;20903;-70
2023/03/28 02:29:38;;;;;;;4.32;3.30;;;;;;;;;;4943252;29;20486;-70
2023/03/28 02:32:13;;;;;;;7.20;4.20;;;;;;;;;;4924472;28;20090;-70
2023/03/28 02:34:41;;;;;;;3.97;2.63;;;;;;;;;;4925901;29;20047;-70
2023/03/28 02:37:15;;;;;;;4.82;3.88;;;;;;;;;;4926095;29;20035;-71
2023/03/28 02:40:08;;;;;;;4.72;3.42;;;;;;;;;;4926078;28;20523;-71
2023/03/28 02:42:51;;;;;;;17.67;5.28;;;;;;;;;;4926501;29;20048;-71
2023/03/28 02:45:23;;;;;;;5.35;4.43;;;;;;;;;;4940711;28;20063;-71
2023/03/28 02:48:11;;;;;;;6.38;4.43;;;;;;;;;;4943214;29;20168;-72
2023/03/28 02:50:56;;;;;;;6.78;4.75;;;;;;;;;;4894882;29;20079;-71
2023/03/28 02:53:43;;;;;;;3.15;2.60;;;;;;;;;;4941263;29;20075;-71
2023/03/28 02:56:14;;;;;;;3.95;3.17;;;;;;;;;;4940203;28;20058;-71
2023/03/28 02:59:30;;;;;;;5.97;4.05;;;;;;;;;;4942516;29;20145;-71
2023/03/28 03:01:55;;;;;;;4.93;3.80;;;;;;;;;;4924820;28;20062;-71
2023/03/28 03:04:21;;;;;;;6.22;4.15;;;;;;;;;;4942438;29;20051;-71
2023/03/28 03:06:47;;;;;;;4.15;3.72;;;;;;;;;;4942315;28;20035;-72
2023/03/28 03:09:14;;;;;;;5.97;4.63;;;;;;;;;;4928461;28;20053;-71
2023/03/28 03:11:41;;;;;;;6.43;4.72;;;;;;;;;;4927823;29;20093;-71
2023/03/28 03:14:06;;;;;;;4.70;4.00;;;;;;;;;;4942423;28;20491;-72
2023/03/28 03:16:33;;;;;;;6.50;4.50;;;;;;;;;;4926453;29;20102;-71
2023/03/28 03:18:59;;;;;;;11.27;5.38;;;;;;;;;;4942429;29;20051;-71
2023/03/28 03:21:26;;;;;;;11.40;5.65;;;;;;;;;;4925493;28;20110;-71
2023/03/28 03:23:51;;;;;;;9.15;5.47;;;;;;;;;;4923742;29;20506;-71
2023/03/28 03:26:17;;;;;;;10.15;5.32;;;;;;;;;;4924829;28;20409;-71
2023/03/28 03:28:57;;;;;;;7.35;4.63;;;;;;;;;;4924545;29;20106;-71
2023/03/28 03:31:25;;;;;;;7.03;4.63;;;;;;;;;;4923999;29;20470;-71
2023/03/28 03:34:11;;;;;;;5.35;4.05;;;;;;;;;;4910805;29;20139;-71
2023/03/28 03:36:41;;;;;;;10.00;4.57;;;;;;;;;;4941860;29;20494;-71
2023/03/28 03:39:08;;;;;;;9.38;5.10;;;;;;;;;;4941377;28;20042;-70
2023/03/28 03:41:33;;;;;;;5.05;3.90;;;;;;;;;;4924427;29;20055;-70
2023/03/28 03:43:59;;;;;;;7.60;3.97;;;;;;;;;;4923841;28;20051;-70
2023/03/28 03:46:25;;;;;;;7.82;5.35;;;;;;;;;;4924435;29;20046;-70
2023/03/28 03:48:51;;;;;;;9.20;6.28;;;;;;;;;;4923905;29;20074;-70
2023/03/28 03:51:17;;;;;;;5.82;4.82;;;;;;;;;;4923542;28;20071;-70
2023/03/28 03:53:43;;;;;;;8.30;6.03;;;;;;;;;;4923950;29;20043;-70
2023/03/28 03:56:12;;;;;;;3.25;2.60;;;;;;;;;;4923624;28;20113;-70
2023/03/28 03:58:55;;;;;;;4.95;4.03;;;;;;;;;;4924136;29;20391;-71
2023/03/28 04:01:28;;;;;;;5.88;4.32;;;;;;;;;;4923756;29;20113;-72
2023/03/28 04:03:55;;;;;;;7.68;5.05;;;;;;;;;;4923185;28;20130;-72
2023/03/28 04:06:28;;;;;;;9.15;4.85;;;;;;;;;;4924904;29;20047;-71
2023/03/28 04:08:54;;;;;;;6.22;4.78;;;;;;;;;;4942682;28;20047;-71
2023/03/28 04:11:37;;;;;;;5.88;4.32;;;;;;;;;;4927846;29;20152;-71
2023/03/28 04:14:03;;;;;;;6.90;5.25;;;;;;;;;;4944168;28;20204;-71
2023/03/28 04:16:33;;;;;;;7.15;4.88;;;;;;;;;;4927672;29;20047;-71
2023/03/28 04:19:01;;;;;;;7.70;4.38;;;;;;;;;;4942850;29;20090;-71
2023/03/28 04:21:31;;;;;;;6.22;4.60;;;;;;;;;;4928477;28;20051;-71
2023/03/28 04:24:00;;;;;;;10.98;5.80;;;;;;;;;;4929930;29;20074;-71
2023/03/28 04:26:36;;;;;;;8.10;4.35;;;;;;;;;;4928591;28;20138;-71
2023/03/28 04:29:05;;;;;;;5.18;4.38;;;;;;;;;;4928710;29;20438;-71
2023/03/28 04:31:38;;;;;;;7.50;4.78;;;;;;;;;;4926916;29;20042;-71
2023/03/28 04:34:29;;;;;;;7.40;5.45;;;;;;;;;;4916917;29;20058;-71
2023/03/28 04:37:01;;;;;;;6.10;4.75;;;;;;;;;;4942654;29;20039;-71
2023/03/28 04:39:31;;;;;;;6.30;4.57;;;;;;;;;;4927166;28;20047;-71
2023/03/28 04:42:26;;;;;;;6.85;4.72;;;;;;;;;;4866486;29;20052;-71
2023/03/28 04:45:05;;;;;;;5.15;4.25;;;;;;;;;;4925206;28;20114;-71
2023/03/28 04:47:31;;;;;;;5.05;4.45;;;;;;;;;;4941323;29;20051;-71
2023/03/28 04:49:57;;;;;;;5.28;3.95;;;;;;;;;;4926058;28;20138;-71
2023/03/28 04:52:23;;;;;;;6.13;4.13;;;;;;;;;;4927502;29;20059;-71
2023/03/28 04:54:50;;;;;;;8.20;4.97;;;;;;;;;;4926310;29;20047;-71
2023/03/28 04:57:18;;;;;;;6.25;4.82;;;;;;;;;;4925298;28;20074;-70
2023/03/28 04:59:49;;;;;;;9.40;4.27;;;;;;;;;;4925983;29;20101;-71
2023/03/28 05:02:24;;;;;;;20.10;5.05;;;;;;;;;;4921660;29;20757;-69
2023/03/28 05:04:59;;;;;;;7.78;4.68;;;;;;;;;;4925470;29;20047;-69
2023/03/28 05:07:26;;;;;;;9.32;4.55;;;;;;;;;;4925369;29;20043;-70
2023/03/28 05:09:51;;;;;;;5.30;3.85;;;;;;;;;;4925641;29;20050;-69
2023/03/28 05:12:17;;;;;;;9.27;5.70;;;;;;;;;;4943286;28;20051;-70
2023/03/28 05:15:02;;;;;;;10.75;6.20;;;;;;;;;;4924772;29;21006;-70
2023/03/28 05:17:29;;;;;;;9.57;5.43;;;;;;;;;;4940519;29;20054;-70
2023/03/28 05:19:58;;;;;;;13.02;7.38;;;;;;;;;;4940499;28;20144;-70
2023/03/28 05:22:27;;;;;;;11.15;5.90;;;;;;;;;;4943927;29;20066;-70
2023/03/28 05:24:57;;;;;;;11.90;5.95;;;;;;;;;;4926627;28;20537;-70
2023/03/28 05:27:23;;;;;;;11.63;6.80;;;;;;;;;;4926861;29;20125;-70
2023/03/28 05:29:49;;;;;;;6.95;5.93;;;;;;;;;;4926091;29;20584;-69
2023/03/28 05:32:16;;;;;;;10.10;5.82;;;;;;;;;;4927300;29;20043;-70
2023/03/28 05:34:41;;;;;;;8.65;5.47;;;;;;;;;;4925879;29;20069;-70
2023/03/28 05:37:07;;;;;;;14.27;6.85;;;;;;;;;;4926303;29;20035;-70
2023/03/28 05:39:47;;;;;;;11.45;5.90;;;;;;;;;;4925594;29;20047;-70
2023/03/28 05:42:12;;;;;;;9.15;5.57;;;;;;;;;;4942266;28;20046;-70
2023/03/28 05:44:39;;;;;;;11.05;6.05;;;;;;;;;;4926934;29;20569;-70
2023/03/28 05:47:23;;;;;;;8.60;6.05;;;;;;;;;;4942989;28;20161;-69
2023/03/28 05:49:49;;;;;;;11.57;5.75;;;;;;;;;;4925727;29;20047;-70
2023/03/28 05:52:15;;;;;;;9.98;6.72;;;;;;;;;;4924185;28;20462;-70
2023/03/28 05:54:40;;;;;;;8.38;4.55;;;;;;;;;;4925040;29;20086;-70
2023/03/28 05:57:07;;;;;;;7.30;4.93;;;;;;;;;;4925372;29;20623;-70
2023/03/28 05:59:32;;;;;;;16.90;5.65;;;;;;;;;;4925333;28;20497;-70
2023/03/28 06:01:59;;;;;;;12.25;5.65;;;;;;;;;;4923671;29;20086;-71
2023/03/28 06:04:37;;;;;;;7.28;5.55;;;;;;;;;;4897290;29;20047;-70
2023/03/28 06:07:04;;;;;;;9.20;5.60;;;;;;;;;;4860186;29;20060;-70
2023/03/28 06:09:30;;;;;;;22.75;5.47;;;;;;;;;;4867330;29;20059;-70
2023/03/28 06:11:58;;;;;;;13.02;5.85;;;;;;;;;;4864024;29;20534;-69
2023/03/28 06:14:24;;;;;;;7.47;5.18;;;;;;;;;;4846570;29;20048;-69
2023/03/28 06:16:51;;;;;;;12.52;5.65;;;;;;;;;;4862348;29;20131;-70
2023/03/28 06:19:18;;;;;;;10.52;5.82;;;;;;;;;;4860937;29;20412;-69
2023/03/28 06:21:47;;;;;;;9.88;5.57;;;;;;;;;;4875667;29;20052;-69
2023/03/28 06:24:14;;;;;;;8.48;5.70;;;;;;;;;;4856641;29;20052;-69
2023/03/28 06:26:40;;;;;;;4.57;3.00;;;;;;;;;;4866901;29;20056;-70
2023/03/28 06:29:08;;;;;;;8.10;5.80;;;;;;;;;;4867627;29;20049;-70
2023/03/28 06:31:41;;;;;;;11.55;5.35;;;;;;;;;;4867208;29;20051;-69
2023/03/28 06:34:06;;;;;;;11.23;5.18;;;;;;;;;;4878303;29;20048;-69
2023/03/28 06:36:34;;;;;;;8.60;4.95;;;;;;;;;;4926794;29;20035;-70
2023/03/28 06:39:00;;;;;;;9.35;5.20;;;;;;;;;;4945433;29;20054;-69
2023/03/28 06:41:27;;;;;;;6.68;5.00;;;;;;;;;;4943703;28;20051;-70
2023/03/28 06:43:53;;;;;;;10.75;4.53;;;;;;;;;;4926459;29;20077;-69
2023/03/28 06:46:47;;;;;;;5.93;4.28;;;;;;;;;;4910700;29;20042;-69
2023/03/28 06:49:14;;;;;;;3.00;2.65;;;;;;;;;;4926872;28;20094;-69
2023/03/28 06:51:58;;;;;;;8.52;4.45;;;;;;;;;;4942219;29;20050;-70
2023/03/28 06:54:24;;;;;;;8.88;4.78;;;;;;;;;;4926122;29;20047;-70
2023/03/28 06:56:49;;;;;;;10.15;4.85;;;;;;;;;;4941927;29;20047;-70
2023/03/28 06:59:15;;;;;;;11.05;4.43;;;;;;;;;;4925305;29;20039;-69
2023/03/28 07:01:41;;;;;;;9.57;3.90;;;;;;;;;;4926443;29;20058;-70
2023/03/28 07:04:12;;;;;;;7.32;4.63;;;;;;;;;;4924942;29;20051;-70
2023/03/28 07:10:27;;;;;;;7.55;4.28;;;;;;;;;;4942233;28;20058;-70
2023/03/28 07:12:53;;;;;;;7.68;3.08;;;;;;;;;;4926081;29;20074;-70
2023/03/28 07:15:18;;;;;;;5.75;2.80;;;;;;;;;;4924992;29;20040;-72
2023/03/28 07:17:50;;;;;;;6.88;3.58;;;;;;;;;;4927457;29;20039;-70
2023/03/28 07:20:16;;;;;;;3.53;2.50;;;;;;;;;;4940657;28;20087;-69
2023/03/28 07:22:41;;;;;;;5.65;3.17;;;;;;;;;;4925549;28;20070;-71
2023/03/28 07:25:07;;;;;;;5.93;3.50;;;;;;;;;;4941073;29;20058;-70
2023/03/28 07:27:33;;;;;;;5.32;3.15;;;;;;;;;;4925618;29;20047;-70
2023/03/28 07:29:59;;;;;;;6.57;2.78;;;;;;;;;;4923966;28;20051;-69
2023/03/28 07:32:24;;;;;;;5.43;2.42;;;;;;;;;;4925561;29;20043;-68
2023/03/28 07:34:50;;;;;;;7.45;3.15;;;;;;;;;;4924442;29;20055;-69
2023/03/28 07:37:19;;;;;;;2.88;2.50;;;;;;;;;;4924793;29;20540;-70
2023/03/28 07:39:56;;;;;;;2.92;2.15;;;;;;;;;;4924127;28;20818;-71
2023/03/28 07:42:23;;;;;;;4.72;2.10;;;;;;;;;;4924034;28;20073;-69
2023/03/28 07:44:49;;;;;;;5.45;2.30;;;;;;;;;;4940961;29;20506;-69
2023/03/28 07:47:16;;;;;;;5.10;2.17;;;;;;;;;;4924745;29;20082;-69
2023/03/28 07:49:42;;;;;;;8.82;2.55;;;;;;;;;;4941428;29;20061;-69
2023/03/28 07:52:08;;;;;;;7.55;2.50;;;;;;;;;;4922127;28;20398;-70
2023/03/28 07:54:33;;;;;;;2.47;1.80;;;;;;;;;;4925236;29;20058;-70
2023/03/28 07:56:59;;;;;;;3.45;1.73;;;;;;;;;;4924604;29;20099;-70
2023/03/28 07:59:40;;;;;;;2.20;1.70;;;;;;;;;;4925240;28;20081;-71
2023/03/28 08:02:06;;;;;;;2.80;1.83;;;;;;;;;;4924345;29;20161;-70
2023/03/28 08:04:32;;;;;;;3.33;1.90;;;;;;;;;;4923716;28;20506;-70
2023/03/28 08:07:02;;;;;;;8.32;2.00;;;;;;;;;;4924052;29;20035;-69
2023/03/28 08:09:28;;;;;;;4.72;1.88;;;;;;;;;;4933883;29;20054;-70
2023/03/28 08:12:06;;;;;;;5.30;2.13;;;;;;;;;;4925292;28;20195;-70
2023/03/28 08:14:31;;;;;;;8.77;2.45;;;;;;;;;;4926568;29;20138;-69
2023/03/28 08:16:57;;;;;;;4.32;1.92;;;;;;;;;;4924520;28;20047;-71
2023/03/28 08:19:22;;;;;;;3.90;2.00;;;;;;;;;;4924570;29;21053;-70
2023/03/28 08:22:15;;;;;;;2.85;1.73;;;;;;;;;;4917722;29;20051;-70
2023/03/28 08:24:50;;;;;;;4.13;1.40;;;;;;;;;;4924046;29;20553;-69
2023/03/28 08:27:21;;;;;;;5.38;1.40;;;;;;;;;;4924164;29;20050;-69
2023/03/28 08:29:50;;;;;;;3.85;1.70;;;;;;;;;;4924241;28;20867;-69
2023/03/28 08:32:16;;;;;;;5.68;1.75;;;;;;;;;;4923892;29;20063;-70
2023/03/28 08:34:41;;;;;;;6.88;1.58;;;;;;;;;;4924649;28;20869;-71
2023/03/28 08:37:13;;;;;;;3.80;1.97;;;;;;;;;;4923503;29;20047;-69
2023/03/28 08:39:41;;;;;;;3.55;1.80;;;;;;;;;;4924372;29;20285;-70
2023/03/28 08:42:43;;;;;;;5.07;1.63;;;;;;;;;;4923801;28;20114;-69
2023/03/28 08:45:13;;;;;;;5.72;2.10;;;;;;;;;;4875583;29;20051;-70
2023/03/28 08:48:05;;;;;;;2.85;1.40;;;;;;;;;;4923627;29;20047;-68
2023/03/28 08:50:42;;;;;;;5.43;1.77;;;;;;;;;;4900962;29;20114;-69
2023/03/28 08:53:26;;;;;;;3.10;1.70;;;;;;;;;;4924349;29;20043;-69
2023/03/28 08:55:52;;;;;;;3.88;1.60;;;;;;;;;;4927247;28;20071;-67
2023/03/28 08:58:22;;;;;;;4.90;1.40;;;;;;;;;;4943339;29;20188;-70
2023/03/28 09:00:48;;;;;;;6.82;1.98;;;;;;;;;;4927442;28;20047;-72
2023/03/28 09:03:20;;;;;;;4.75;1.75;;;;;;;;;;4927860;29;20050;-71
2023/03/28 09:06:01;;;;;;;3.47;1.42;;;;;;;;;;4939176;28;20133;-69
2023/03/28 09:08:42;;;;;;;5.75;1.58;;;;;;;;;;4926555;29;20499;-69
2023/03/28 09:11:23;;;;;;;2.50;1.13;;;;;;;;;;4927093;29;20146;-68
2023/03/28 09:14:10;;;;;;;2.47;1.48;;;;;;;;;;4944610;28;20039;-69
2023/03/28 09:16:49;;;;;;;3.45;1.63;;;;;;;;;;4913211;29;20043;-69
2023/03/28 09:19:29;;;;;;;2.15;1.27;;;;;;;;;;4926862;28;20047;-69
2023/03/28 09:22:31;;;;;;;3.35;1.60;;;;;;;;;;4926873;29;20039;-68
2023/03/28 09:25:18;;;;;;;3.00;1.20;;;;;;;;;;4944355;28;20059;-68
2023/03/28 09:28:28;;;;;;;4.32;1.10;;;;;;;;;;4943311;29;20047;-69
2023/03/28 09:30:56;;;;;;;2.80;1.65;;;;;;;;;;4927203;28;20363;-70
2023/03/28 09:33:29;;;;;;;4.85;1.83;;;;;;;;;;4926777;29;20049;-69
2023/03/28 09:35:58;;;;;;;5.82;1.48;;;;;;;;;;4942608;28;20780;-69
2023/03/28 09:38:33;;;;;;;4.43;1.30;;;;;;;;;;4926817;29;20043;-69
2023/03/28 09:41:01;;;;;;;5.53;1.67;;;;;;;;;;4927175;28;20498;-69
2023/03/28 09:43:53;;;;;;;5.10;1.55;;;;;;;;;;4943764;29;20046;-70
2023/03/28 09:46:47;;;;;;;4.05;1.58;;;;;;;;;;4928417;29;20526;-71
2023/03/28 09:49:41;;;;;;;2.92;1.58;;;;;;;;;;4929306;29;20414;-69
2023/03/28 09:52:17;;;;;;;4.10;1.30;;;;;;;;;;4926073;28;20062;-69
2023/03/28 09:54:42;;;;;;;;;;;;;;;;;;4942496;29;20399;-70
2023/03/28 09:57:08;;;;;;;4.82;2.17;;;;;;;;;;4926698;29;20404;-71
2023/03/28 09:59:44;;;;;;;5.63;1.77;;;;;;;;;;4912062;29;20048;-69
2023/03/28 10:02:29;;;;;;;2.90;1.40;;;;;;;;;;4926069;28;20134;-70
2023/03/28 10:04:59;;;;;;;3.58;1.60;;;;;;;;;;4925628;29;20047;-69
2023/03/28 10:07:42;;;;;;;1.90;1.70;;;;;;;;;;4943575;28;21030;-70
2023/03/28 10:10:31;;;;;;;3.20;1.50;;;;;;;;;;4915536;29;20047;-70
2023/03/28 10:13:04;;;;;;;1.85;1.05;;;;;;;;;;4926156;29;20098;-68
2023/03/28 10:15:46;;;;;;;1.73;1.52;;;;;;;;;;4925927;28;20137;-69
2023/03/28 10:18:19;;;;;;;0.88;0.88;;;;;;;;;;4942861;29;20051;-69
2023/03/28 10:20:51;;;;;;;1.42;1.13;;;;;;;;;;4926827;28;20051;-69
2023/03/28 10:23:21;;;;;;;4.10;1.30;;;;;;;;;;4941911;29;20142;-71
2023/03/28 10:25:53;;;;;;;3.13;1.08;;;;;;;;;;4910074;29;20047;-70
2023/03/28 10:28:33;;;;;;;2.30;1.25;;;;;;;;;;4925713;29;20502;-70
2023/03/28 10:31:01;;;;;;;1.60;1.00;;;;;;;;;;4926278;29;20050;-70
2023/03/28 10:33:51;;;;;;;2.67;1.30;;;;;;;;;;4926673;28;20082;-70
2023/03/28 10:36:42;;;;;;;4.40;1.50;;;;;;;;;;4914153;29;20051;-69
2023/03/28 10:39:27;;;;;;;1.40;1.20;;;;;;;;;;4948273;28;20050;-68
2023/03/28 10:42:11;;;;;;;4.00;1.60;;;;;;;;;;4942410;29;20059;-68
2023/03/28 10:45:31;;;;;;;2.75;1.80;;;;;;;;;;4913945;29;20928;-71
2023/03/28 10:47:59;;;;;;;3.50;1.75;;;;;;;;;;4930217;29;20051;-70
2023/03/28 10:50:40;;;;;;;6.07;1.45;;;;;;;;;;4944066;28;20487;-69
2023/03/28 10:53:26;;;;;;;5.00;1.70;;;;;;;;;;4942200;29;20051;-69
2023/03/28 10:56:17;;;;;;;2.38;1.70;;;;;;;;;;4926240;29;20098;-69
2023/03/28 10:59:20;;;;;;;6.53;1.83;;;;;;;;;;4926463;29;20083;-69
2023/03/28 11:02:04;;;;;;;2.55;1.60;;;;;;;;;;4931197;29;20134;-70
2023/03/28 11:04:57;;;;;;;1.17;1.08;;;;;;;;;;4910090;29;20164;-70
2023/03/28 11:07:44;;;;;;;2.40;1.30;;;;;;;;;;4926361;29;20051;-70
2023/03/28 11:10:42;;;;;;;1.55;1.40;;;;;;;;;;4923541;29;20058;-70
2023/03/28 11:13:36;;;;;;;1.88;1.45;;;;;;;;;;4926054;29;20066;-70
2023/03/28 11:16:20;;;;;;;2.67;1.60;;;;;;;;;;4925244;28;20051;-70
2023/03/28 11:19:21;;;;;;;3.72;1.70;;;;;;;;;;4941154;29;20525;-70
2023/03/28 11:22:08;;;;;;;2.53;1.73;;;;;;;;;;4924940;28;20429;-71
2023/03/28 11:25:14;;;;;;;5.85;2.17;;;;;;;;;;4925120;29;20053;-69
2023/03/28 11:28:04;;;;;;;;;;;;;;;;;;4942345;28;20380;-70
2023/03/28 11:30:41;;;;;;;1.70;1.52;;;;;;;;;;4908256;29;20305;-71
2023/03/28 11:33:45;;;;;;;2.25;1.70;;;;;;;;;;4939953;28;20043;-71
2023/03/28 11:36:28;;;;;;;2.88;1.60;;;;;;;;;;4941461;29;20110;-71
2023/03/28 11:39:18;;;;;;;5.53;1.80;;;;;;;;;;4925228;28;20043;-71
2023/03/28 11:41:47;;;;;;;2.22;1.58;;;;;;;;;;4941510;29;20038;-70
2023/03/28 11:44:36;;;;;;;2.10;1.30;;;;;;;;;;4923268;28;20048;-72
2023/03/28 11:47:19;;;;;;;2.85;1.70;;;;;;;;;;4925091;29;20062;-72
2023/03/28 11:50:22;;;;;;;3.85;1.67;;;;;;;;;;4940804;29;20434;-71
2023/03/28 11:53:15;;;;;;;2.53;1.73;;;;;;;;;;4915044;29;20039;-70
2023/03/28 11:56:01;;;;;;;3.30;1.80;;;;;;;;;;4940040;29;20079;-69
2023/03/28 11:58:52;;;;;;;2.33;1.60;;;;;;;;;;4929200;28;20113;-70
2023/03/28 12:01:25;;;;;;;1.85;1.20;;;;;;;;;;4939532;29;20617;-70
2023/03/28 12:04:06;;;;;;;3.78;1.70;;;;;;;;;;4941100;28;20138;-69
2023/03/28 12:06:40;;;;;;;3.88;2.00;;;;;;;;;;4921644;29;20521;-70
2023/03/28 12:09:15;;;;;;;1.88;1.65;;;;;;;;;;4939293;28;20901;-70
2023/03/28 12:11:54;;;;;;;4.82;1.85;;;;;;;;;;4923768;29;20040;-70
2023/03/28 12:14:37;;;;;;;3.22;1.45;;;;;;;;;;4923687;28;20576;-72
2023/03/28 12:17:25;;;;;;;1.55;1.40;;;;;;;;;;4938821;29;20054;-71
2023/03/28 12:19:52;;;;;;;2.92;1.50;;;;;;;;;;4940016;29;20482;-69
2023/03/28 12:22:19;;;;;;;4.47;1.55;;;;;;;;;;4923178;29;20047;-70
2023/03/28 12:25:13;;;;;;;5.05;1.63;;;;;;;;;;4924141;29;20450;-70
2023/03/28 12:28:13;;;;;;;3.13;1.60;;;;;;;;;;4938932;28;20047;-71
2023/03/28 12:30:55;;;;;;;1.88;1.23;;;;;;;;;;4902425;29;20102;-70
2023/03/28 12:33:44;;;;;;;3.45;1.73;;;;;;;;;;4943262;28;20078;-70
2023/03/28 12:36:32;;;;;;;2.70;1.42;;;;;;;;;;4941214;29;20051;-69
2023/03/28 12:39:16;;;;;;;2.55;1.30;;;;;;;;;;4926996;28;20051;-71
2023/03/28 12:41:45;;;;;;;2.65;1.90;;;;;;;;;;4943886;29;20146;-69
2023/03/28 12:44:12;;;;;;;2.22;1.60;;;;;;;;;;4927194;28;20048;-70
2023/03/28 12:47:00;;;;;;;3.08;1.73;;;;;;;;;;4928487;29;20058;-69
2023/03/28 12:49:40;;;;;;;3.15;1.40;;;;;;;;;;4942511;29;20073;-69
2023/03/28 12:52:21;;;;;;;2.67;1.58;;;;;;;;;;4927247;28;20438;-69
2023/03/28 12:55:11;;;;;;;1.70;1.45;;;;;;;;;;4926895;29;20047;-69
2023/03/28 12:57:45;;;;;;;3.35;1.70;;;;;;;;;;4943693;28;20602;-70
2023/03/28 13:00:55;;;;;;;2.28;1.60;;;;;;;;;;4903082;29;20117;-69
2023/03/28 13:03:45;;;;;;;3.05;1.98;;;;;;;;;;4944449;28;20055;-68
2023/03/28 13:06:36;;;;;;;3.10;1.75;;;;;;;;;;4926572;29;20043;-70
2023/03/28 13:09:39;;;;;;;3.30;1.77;;;;;;;;;;4941338;29;20058;-71
2023/03/28 13:12:28;;;;;;;3.80;1.52;;;;;;;;;;4939487;28;20051;-69
2023/03/28 13:15:27;;;;;;;3.55;1.67;;;;;;;;;;4942804;29;21169;-68
2023/03/28 13:18:30;;;;;;;2.92;1.90;;;;;;;;;;4912581;29;20959;-68
2023/03/28 13:20:58;;;;;;;2.67;1.92;;;;;;;;;;4862847;29;20527;-69
2023/03/28 13:23:43;;;;;;;1.60;1.50;;;;;;;;;;4931901;28;20049;-69
2023/03/28 13:26:08;;;;;;;2.08;1.58;;;;;;;;;;4943321;28;20054;-69
2023/03/28 13:28:46;;;;;;;2.30;1.60;;;;;;;;;;4943151;29;20077;-70
2023/03/28 13:31:20;;;;;;;1.95;1.75;;;;;;;;;;4943795;28;20047;-66
2023/03/28 13:33:50;;;;;;;4.03;1.73;;;;;;;;;;4943252;29;20136;-69
2023/03/28 13:36:24;;;;;;;2.38;1.60;;;;;;;;;;4943013;28;20051;-68
2023/03/28 13:39:09;;;;;;;2.42;2.00;;;;;;;;;;4943759;29;20504;-69
2023/03/28 13:41:52;;;;;;;3.13;1.83;;;;;;;;;;4942803;28;20406;-70
2023/03/28 13:44:21;;;;;;;2.53;1.80;;;;;;;;;;4941654;28;20059;-69
2023/03/28 13:46:48;;;;;;;2.92;1.70;;;;;;;;;;4943537;29;20109;-70
2023/03/28 13:49:22;;;;;;;2.33;1.55;;;;;;;;;;4943491;28;20063;-69
2023/03/28 13:51:47;;;;;;;1.55;1.40;;;;;;;;;;4943514;29;20058;-69
2023/03/28 13:54:13;;;;;;;3.47;1.98;;;;;;;;;;4942405;28;20031;-70
2023/03/28 13:56:43;;;;;;;2.67;1.70;;;;;;;;;;4945912;29;20039;-69
2023/03/28 13:59:15;;;;;;;2.10;1.88;;;;;;;;;;4943830;29;20109;-69
2023/03/28 14:01:45;;;;;;;;;;;;;;;;;;4942552;28;20158;-67
2023/03/28 14:04:29;;;;;;;2.13;1.65;;;;;;;;;;4941639;29;19927;-70
2023/03/28 14:06:55;;;;;;;2.35;1.60;;;;;;;;;;4941223;28;20055;-67
2023/03/28 14:09:26;;;;;;;4.55;1.40;;;;;;;;;;4941857;29;20097;-68
2023/03/28 14:11:57;;;;;;;3.80;2.00;;;;;;;;;;4939955;29;20066;-68
2023/03/28 14:14:29;;;;;;;1.88;1.63;;;;;;;;;;4931943;29;20055;-68
2023/03/28 14:16:56;;;;;;;2.30;1.38;;;;;;;;;;4936940;29;20518;-69
2023/03/28 14:19:31;;;;;;;2.83;1.55;;;;;;;;;;4937924;28;20051;-71
2023/03/28 14:21:57;;;;;;;1.83;1.67;;;;;;;;;;4940789;29;20075;-70
2023/03/28 14:24:25;;;;;;;3.65;1.60;;;;;;;;;;4940265;28;20123;-71
2023/03/28 14:27:03;;;;;;;1.90;1.70;;;;;;;;;;4940862;29;20130;-69
2023/03/28 14:29:29;;;;;;;3.45;1.80;;;;;;;;;;4940016;28;20043;-70
2023/03/28 14:31:55;;;;;;;1.98;1.67;;;;;;;;;;4941505;29;20051;-70
2023/03/28 14:34:29;;;;;;;3.63;1.95;;;;;;;;;;4939848;28;20110;-71
2023/03/28 14:37:15;;;;;;;2.15;1.52;;;;;;;;;;4924146;29;20055;-70
2023/03/28 14:39:41;;;;;;;2.58;1.73;;;;;;;;;;4940524;28;20137;-70
2023/03/28 14:42:13;;;;;;;3.95;1.95;;;;;;;;;;4940635;28;20105;-70
2023/03/28 14:44:42;;;;;;;3.10;2.45;;;;;;;;;;4940286;29;20058;-70
2023/03/28 14:47:13;;;;;;;3.15;1.65;;;;;;;;;;4940990;28;20043;-69
2023/03/28 14:49:39;;;;;;;2.95;1.95;;;;;;;;;;4940257;29;20078;-70
2023/03/28 14:52:10;;;;;;;3.95;2.15;;;;;;;;;;4940065;28;20836;-69
2023/03/28 14:54:40;;;;;;;2.47;1.85;;;;;;;;;;4940133;29;20054;-68
2023/03/28 14:57:08;;;;;;;3.05;1.85;;;;;;;;;;4936800;29;20043;-70
2023/03/28 14:59:43;;;;;;;3.22;1.60;;;;;;;;;;4936424;29;20051;-70
2023/03/28 15:02:29;;;;;;;3.65;1.73;;;;;;;;;;4928209;29;20681;-70
2023/03/28 15:05:01;;;;;;;3.10;1.88;;;;;;;;;;4929412;29;20521;-71
2023/03/28 15:07:28;;;;;;;;;;;;;;;;;;4942131;29;20078;-69
2023/03/28 15:10:23;;;;;;;2.03;1.67;;;;;;;;;;4908599;29;20400;-69
2023/03/28 15:13:18;;;;;;;2.60;1.42;;;;;;;;;;4926041;29;20043;-70
2023/03/28 15:15:47;;;;;;;2.53;2.00;;;;;;;;;;4940989;28;20046;-70
2023/03/28 15:18:57;;;;;;;2.25;1.73;;;;;;;;;;4950909;29;20533;-70
2023/03/28 15:21:23;;;;;;;2.10;1.75;;;;;;;;;;4929409;29;20502;-70
2023/03/28 15:23:56;;;;;;;2.63;1.70;;;;;;;;;;4939983;29;20994;-70
2023/03/28 15:26:29;;;;;;;2.38;1.67;;;;;;;;;;4940633;28;20051;-69
2023/03/28 15:28:57;;;;;;;2.80;2.00;;;;;;;;;;4941669;29;20055;-70
2023/03/28 15:31:24;;;;;;;3.30;1.80;;;;;;;;;;4940655;29;20055;-70
2023/03/28 15:33:51;;;;;;;3.50;1.88;;;;;;;;;;4940324;28;20046;-71
2023/03/28 15:36:18;;;;;;;3.13;2.05;;;;;;;;;;4940093;29;20415;-71